LRCL Airport Information

Runway Information
Runway 07 Length 6070 ft width 98 ft
Elevation 1036 ft Threshold 0 ft Heading 79
Runway 25 Length 6070 ft Width 98 ft
Elevation 1025 ft Threshold 0 ft Heading 259
Runway 08 Length 0 ft width 0 ft
Elevation 1036 ft Threshold 0 ft Heading 0
Runway 26 Length 0 ft Width 0 ft
Elevation 1025 ft Threshold 0 ft Heading 0
Airport Frequencies
Type APP Name APP Frequency 125.1 MHZ
Type GCA Name PRECISION Frequency 118.7 MHZ
Type TWR Name TWR Frequency 134.4 MHZ
Airport Navaids
Type VOR-DME Name Cluj Frequency 111200 KHZ
Airport Weather Information & NOTAM
ADDS - METARS form results

(0801 UTC 22 May 2018)
 
METAR text: LRCL 220730Z 12006KT 070V150 CAVOK 19/11 Q1019
Conditions at: LRCL (CLUJ-NAPOCA/SOME, RO) observed 0730 UTC 22 May 2018
Temperature: 19.0°C (66°F)
Dewpoint: 11.0°C (52°F) [RH = 60%]
Pressure (altimeter): 30.09 inches Hg (1019.0 mb)
Winds: from the ESE (120 degrees) at 7 MPH (6 knots; 3.1 m/s)
Visibility: 6 or more miles (10+ km)
Ceiling: ceiling and visibility are OK
Clouds: unknown
Weather: no significant weather observed at this time